createdAt,value
2018-12-18T00:00:22.688Z,22.70
2018-12-18T00:02:52.594Z,21.87
2018-12-18T00:05:38.413Z,20.40
2018-12-18T00:08:07.929Z,19.50
2018-12-18T00:10:42.746Z,18.50
2018-12-18T00:13:12.287Z,22.33
2018-12-18T00:15:41.755Z,23.73
2018-12-18T00:18:11.254Z,23.60
2018-12-18T00:20:40.721Z,20.80
2018-12-18T00:23:10.222Z,22.40
2018-12-18T00:25:39.689Z,21.90
2018-12-18T00:28:09.203Z,20.43
2018-12-18T00:30:38.682Z,22.00
2018-12-18T00:33:08.198Z,21.27
2018-12-18T00:35:37.672Z,21.30
2018-12-18T00:38:07.162Z,22.87
2018-12-18T00:40:36.653Z,21.37
2018-12-18T00:43:06.182Z,23.13
2018-12-18T00:45:35.953Z,20.90
2018-12-18T00:48:05.491Z,23.17
2018-12-18T00:50:34.962Z,21.93
2018-12-18T00:53:04.462Z,23.30
2018-12-18T00:55:33.943Z,22.13
2018-12-18T00:58:03.461Z,23.90
2018-12-18T01:00:32.999Z,23.00
2018-12-18T01:03:03.306Z,23.03
2018-12-18T01:05:33.078Z,19.83
2018-12-18T01:08:02.563Z,22.47
2018-12-18T01:10:32.133Z,24.27
2018-12-18T01:13:01.631Z,22.83
2018-12-18T01:15:31.106Z,21.17
2018-12-18T01:18:00.610Z,23.70
2018-12-18T01:20:30.094Z,23.53
2018-12-18T01:22:59.582Z,24.07
2018-12-18T01:25:29.502Z,18.47
2018-12-18T01:27:59.894Z,22.80
2018-12-18T01:30:29.370Z,20.80
2018-12-18T01:32:58.854Z,22.33
2018-12-18T01:35:28.318Z,21.23
2018-12-18T01:37:57.822Z,22.10
2018-12-18T01:40:29.282Z,21.57
2018-12-18T01:42:59.306Z,22.53
2018-12-18T01:45:28.778Z,21.40
2018-12-18T01:47:58.278Z,21.33
2018-12-18T01:50:27.745Z,21.17
2018-12-18T01:52:57.254Z,19.30
2018-12-18T01:55:26.726Z,17.83
2018-12-18T01:57:56.226Z,18.97
2018-12-18T02:00:25.715Z,20.43
2018-12-18T02:02:55.205Z,22.30
2018-12-18T02:05:24.694Z,18.53
2018-12-18T02:07:54.190Z,21.27
2018-12-18T02:10:23.670Z,22.13
2018-12-18T02:12:53.140Z,18.13
2018-12-18T02:15:22.641Z,21.70
2018-12-18T02:17:52.323Z,21.30
2018-12-18T02:20:22.092Z,20.77
2018-12-18T02:22:51.560Z,20.80
2018-12-18T02:25:21.565Z,19.43
2018-12-18T02:27:51.050Z,21.67
2018-12-18T02:30:20.559Z,17.90
2018-12-18T02:32:50.181Z,21.17
2018-12-18T02:35:19.981Z,19.57
2018-12-18T02:37:49.450Z,21.27
2018-12-18T02:40:18.942Z,17.97
2018-12-18T02:42:48.435Z,19.77
2018-12-18T02:45:17.930Z,20.70
2018-12-18T02:47:47.402Z,19.87
2018-12-18T02:50:16.916Z,19.27
2018-12-18T02:52:46.389Z,18.77
2018-12-18T02:55:16.174Z,19.80
2018-12-18T02:57:45.754Z,16.53
2018-12-18T03:00:15.267Z,19.20
2018-12-18T03:02:44.726Z,18.70
2018-12-18T03:05:14.595Z,17.73
2018-12-18T03:07:44.069Z,20.30
2018-12-18T03:10:14.435Z,19.97
2018-12-18T03:12:43.906Z,17.83
2018-12-18T03:15:13.530Z,16.50
2018-12-18T03:17:43.011Z,17.50
2018-12-18T03:20:12.518Z,17.83
2018-12-18T03:22:41.984Z,18.63
2018-12-18T03:25:11.482Z,17.33
2018-12-18T03:27:40.958Z,15.93
2018-12-18T03:30:10.464Z,18.27
2018-12-18T03:32:45.035Z,18.03
2018-12-18T03:35:14.530Z,17.93
2018-12-18T03:37:43.987Z,18.33
2018-12-18T03:40:14.757Z,17.77
2018-12-18T03:42:44.258Z,16.87
2018-12-18T03:45:13.749Z,18.73
2018-12-18T03:47:43.218Z,18.40
2018-12-18T03:50:13.359Z,17.30
2018-12-18T03:52:42.830Z,17.47
2018-12-18T03:55:12.454Z,18.03
2018-12-18T03:57:41.923Z,18.03
2018-12-18T04:00:11.712Z,17.10
2018-12-18T04:02:41.201Z,17.17
2018-12-18T04:05:10.710Z,15.13
2018-12-18T04:07:40.221Z,16.13
2018-12-18T04:10:09.870Z,16.53
2018-12-18T04:12:39.354Z,17.07
2018-12-18T04:15:08.922Z,16.30
2018-12-18T04:17:38.402Z,16.73
2018-12-18T04:20:07.905Z,18.87
2018-12-18T04:22:37.396Z,17.33
2018-12-18T04:25:06.926Z,18.03
2018-12-18T04:27:36.408Z,17.43
2018-12-18T04:30:07.137Z,17.53
2018-12-18T04:32:36.646Z,19.10
2018-12-18T04:35:06.487Z,18.20
2018-12-18T04:37:36.163Z,17.53
2018-12-18T04:40:06.014Z,18.40
2018-12-18T04:42:35.517Z,16.83
2018-12-18T04:45:05.110Z,19.00
2018-12-18T04:47:34.585Z,19.47
2018-12-18T04:50:04.217Z,17.40
2018-12-18T04:52:33.702Z,18.90
2018-12-18T04:55:03.203Z,17.43
2018-12-18T04:57:32.678Z,17.70
2018-12-18T05:00:02.175Z,17.83
2018-12-18T05:02:31.662Z,17.13
2018-12-18T05:05:01.143Z,16.10
2018-12-18T05:07:30.609Z,17.33
2018-12-18T05:10:00.106Z,17.10
2018-12-18T05:12:29.583Z,16.27
2018-12-18T05:14:59.078Z,15.57
2018-12-18T05:17:28.546Z,14.37
2018-12-18T05:19:58.110Z,13.93
2018-12-18T05:22:28.177Z,15.53
2018-12-18T05:24:57.681Z,15.97
2018-12-18T05:27:27.154Z,16.10
2018-12-18T05:29:56.640Z,13.33
2018-12-18T05:32:26.918Z,15.20
2018-12-18T05:34:56.777Z,14.37
2018-12-18T05:37:26.405Z,16.33
2018-12-18T05:39:55.891Z,14.43
2018-12-18T05:42:25.361Z,14.43
2018-12-18T05:44:54.870Z,15.83
2018-12-18T05:47:24.350Z,15.07
2018-12-18T05:49:53.837Z,15.43
2018-12-18T05:52:23.910Z,14.13
2018-12-18T05:54:53.417Z,14.07
2018-12-18T05:57:22.881Z,14.23
2018-12-18T05:59:52.373Z,15.07
2018-12-18T06:02:21.835Z,15.43
2018-12-18T06:04:51.338Z,13.83
2018-12-18T06:07:20.846Z,14.63
2018-12-18T06:09:50.338Z,13.57
2018-12-18T06:12:19.809Z,14.03
2018-12-18T06:14:49.333Z,14.33
2018-12-18T06:17:18.801Z,14.63
2018-12-18T06:19:48.286Z,16.20
2018-12-18T06:22:17.757Z,14.90
2018-12-18T06:24:47.282Z,15.80
2018-12-18T06:27:16.746Z,17.43
2018-12-18T06:29:46.234Z,16.23
2018-12-18T06:32:15.715Z,15.30
2018-12-18T06:34:45.222Z,15.10
2018-12-18T06:37:15.093Z,14.00
2018-12-18T06:39:44.881Z,14.97
2018-12-18T06:42:14.359Z,16.00
2018-12-18T06:44:43.885Z,14.47
2018-12-18T06:47:13.366Z,15.67
2018-12-18T06:49:42.862Z,14.77
2018-12-18T06:52:12.346Z,14.33
2018-12-18T06:54:41.861Z,14.17
2018-12-18T06:57:11.340Z,15.73
2018-12-18T06:59:40.839Z,14.57
2018-12-18T07:02:10.310Z,13.40
2018-12-18T07:04:40.926Z,14.90
2018-12-18T07:07:10.400Z,14.47
2018-12-18T07:09:39.909Z,13.00
2018-12-18T07:12:09.389Z,13.80
2018-12-18T07:14:38.877Z,14.10
2018-12-18T07:17:08.361Z,15.13
2018-12-18T07:19:37.857Z,15.07
2018-12-18T07:22:07.372Z,13.87
2018-12-18T07:24:36.883Z,14.07
2018-12-18T07:27:06.358Z,13.90
2018-12-18T07:29:35.846Z,16.50
2018-12-18T07:32:05.310Z,14.53
2018-12-18T07:34:34.820Z,14.77
2018-12-18T07:37:04.837Z,14.47
2018-12-18T07:39:34.326Z,12.80
2018-12-18T07:42:04.118Z,15.07
2018-12-18T07:44:33.645Z,13.53
2018-12-18T07:47:03.134Z,14.00
2018-12-18T07:49:32.641Z,12.87
2018-12-18T07:52:02.149Z,14.43
2018-12-18T07:54:31.662Z,13.27
2018-12-18T07:57:01.137Z,14.67
2018-12-18T07:59:30.618Z,14.30
2018-12-18T08:02:00.081Z,13.27
2018-12-18T08:04:29.608Z,12.90
2018-12-18T08:06:59.098Z,12.40
2018-12-18T08:09:28.562Z,12.17
2018-12-18T08:11:58.050Z,13.00
2018-12-18T08:14:27.714Z,11.83
2018-12-18T08:16:57.407Z,12.17
2018-12-18T08:19:26.883Z,13.03
2018-12-18T08:21:56.390Z,11.17
2018-12-18T08:24:25.861Z,11.37
2018-12-18T08:26:55.406Z,12.17
2018-12-18T08:29:24.906Z,12.47
2018-12-18T08:31:54.422Z,12.70
2018-12-18T08:34:24.077Z,12.57
2018-12-18T08:36:53.586Z,11.67
2018-12-18T08:39:23.300Z,12.30
2018-12-18T08:41:53.095Z,12.50
2018-12-18T08:44:22.634Z,12.30
2018-12-18T08:46:52.186Z,11.23
2018-12-18T08:49:21.653Z,13.50
2018-12-18T08:51:51.151Z,13.03
2018-12-18T08:54:20.629Z,12.97
2018-12-18T08:56:50.165Z,12.30
2018-12-18T08:59:19.750Z,12.03
2018-12-18T09:01:49.258Z,13.90
2018-12-18T09:04:18.721Z,13.97
2018-12-18T09:06:48.210Z,12.20
2018-12-18T09:09:17.679Z,13.10
2018-12-18T09:11:47.215Z,11.63
2018-12-18T09:14:16.682Z,12.63
2018-12-18T09:16:51.490Z,12.27
2018-12-18T09:19:20.963Z,11.70
2018-12-18T09:21:50.467Z,10.80
2018-12-18T09:24:19.941Z,12.17
2018-12-18T09:26:49.438Z,11.57
2018-12-18T09:29:18.936Z,10.67
2018-12-18T09:31:48.437Z,9.67
2018-12-18T09:34:17.914Z,11.30
2018-12-18T09:36:47.421Z,11.80
2018-12-18T09:39:19.796Z,11.83
2018-12-18T09:41:51.778Z,11.00
2018-12-18T09:44:21.275Z,11.23
2018-12-18T09:46:51.029Z,10.37
2018-12-18T09:49:20.826Z,11.30
2018-12-18T09:51:50.315Z,10.90
2018-12-18T09:54:19.794Z,10.53
2018-12-18T09:56:51.577Z,10.63
2018-12-18T09:59:21.094Z,10.87
2018-12-18T10:01:50.593Z,10.70
2018-12-18T10:04:20.074Z,11.37
2018-12-18T10:06:49.574Z,10.87
2018-12-18T10:09:19.258Z,11.23
2018-12-18T10:11:48.754Z,11.77
2018-12-18T10:14:18.209Z,11.20
2018-12-18T10:16:47.818Z,12.20
2018-12-18T10:19:17.282Z,11.90
2018-12-18T10:21:46.790Z,11.60
2018-12-18T10:24:16.723Z,11.53
2018-12-18T10:26:46.360Z,11.03
2018-12-18T10:29:15.910Z,9.87
2018-12-18T10:31:45.393Z,10.83
2018-12-18T10:34:14.875Z,9.93
2018-12-18T10:36:44.374Z,10.57
2018-12-18T10:39:13.860Z,9.90
2018-12-18T10:41:43.378Z,9.83
2018-12-18T10:44:12.886Z,10.30
2018-12-18T10:46:42.378Z,10.03
2018-12-18T10:49:11.846Z,10.00
2018-12-18T10:51:41.346Z,10.40
2018-12-18T10:54:10.817Z,9.03
2018-12-18T10:56:40.325Z,8.50
2018-12-18T10:59:09.805Z,7.97
2018-12-18T11:01:44.667Z,8.83
2018-12-18T11:04:14.142Z,7.87
2018-12-18T11:06:43.655Z,8.53
2018-12-18T11:09:13.130Z,8.83
2018-12-18T11:11:42.625Z,8.87
2018-12-18T11:14:12.079Z,8.43
2018-12-18T11:16:41.570Z,8.10
2018-12-18T11:19:11.021Z,8.00
2018-12-18T11:21:40.558Z,8.80
2018-12-18T11:24:10.063Z,8.40
2018-12-18T11:26:39.557Z,8.30
2018-12-18T11:29:09.044Z,8.47
2018-12-18T11:31:39.453Z,8.53
2018-12-18T11:34:08.917Z,9.07
2018-12-18T11:36:38.427Z,7.60
2018-12-18T11:39:08.498Z,7.13
2018-12-18T11:41:38.025Z,7.00
2018-12-18T11:44:07.616Z,6.23
2018-12-18T11:46:37.113Z,5.87
2018-12-18T11:49:06.574Z,6.27
2018-12-18T11:51:36.067Z,6.07
2018-12-18T11:54:05.562Z,5.10
2018-12-18T11:56:35.054Z,5.67
2018-12-18T11:59:05.256Z,5.37
2018-12-18T12:01:34.746Z,5.70
2018-12-18T12:04:04.222Z,5.40
2018-12-18T12:06:33.707Z,5.33
2018-12-18T12:09:03.318Z,5.40
2018-12-18T12:11:33.109Z,5.40
2018-12-18T12:14:02.582Z,5.57
2018-12-18T12:16:32.073Z,6.33
2018-12-18T12:19:01.598Z,5.23
2018-12-18T12:21:31.094Z,5.37
2018-12-18T12:24:00.601Z,5.10
2018-12-18T12:26:34.997Z,5.27
2018-12-18T12:29:04.473Z,5.40
2018-12-18T12:31:33.950Z,5.70
2018-12-18T12:34:03.426Z,5.60
2018-12-18T12:36:32.910Z,4.90
2018-12-18T12:39:03.161Z,5.33
2018-12-18T12:41:32.729Z,4.70
2018-12-18T12:44:02.556Z,4.93
2018-12-18T12:46:32.042Z,4.70
2018-12-18T12:49:05.641Z,4.77
2018-12-18T12:51:35.150Z,5.00
2018-12-18T12:54:04.635Z,4.40
2018-12-18T12:56:34.131Z,4.10
2018-12-18T12:59:03.609Z,4.00
2018-12-18T13:01:33.154Z,4.77
2018-12-18T13:04:02.630Z,3.97
2018-12-18T13:06:36.610Z,3.97
2018-12-18T13:09:05.263Z,3.93
2018-12-18T13:11:34.750Z,3.60
2018-12-18T13:14:04.346Z,3.50
2018-12-18T13:16:33.869Z,3.57
2018-12-18T13:19:03.378Z,3.10
2018-12-18T13:21:32.852Z,3.53
2018-12-18T13:24:02.346Z,3.17
2018-12-18T13:26:31.830Z,4.13
2018-12-18T13:29:01.338Z,3.00
2018-12-18T13:31:30.815Z,3.07
2018-12-18T13:34:00.333Z,2.50
2018-12-18T13:36:29.806Z,2.80
2018-12-18T13:38:59.300Z,2.53
2018-12-18T13:41:28.758Z,2.70
2018-12-18T13:43:58.565Z,2.57
2018-12-18T13:46:28.350Z,2.63
2018-12-18T13:48:57.852Z,3.00
2018-12-18T13:51:27.322Z,2.73
2018-12-18T13:53:56.807Z,2.93
2018-12-18T13:56:26.259Z,2.57
2018-12-18T13:58:55.754Z,2.93
2018-12-18T14:01:25.218Z,2.80
2018-12-18T14:03:54.735Z,2.90
2018-12-18T14:06:24.346Z,2.67
2018-12-18T14:08:53.838Z,2.70
2018-12-18T14:11:23.318Z,2.60
2018-12-18T14:13:52.811Z,2.80
2018-12-18T14:16:22.277Z,2.60
2018-12-18T14:18:51.905Z,2.40
2018-12-18T14:21:21.558Z,2.43
2018-12-18T14:23:51.049Z,2.57
2018-12-18T14:26:20.510Z,2.70
2018-12-18T14:28:49.993Z,2.43
2018-12-18T14:31:19.461Z,2.70
2018-12-18T14:33:48.941Z,2.80
2018-12-18T14:36:18.432Z,3.73
2018-12-18T14:38:47.918Z,2.70
2018-12-18T14:41:17.394Z,3.10
2018-12-18T14:43:46.931Z,2.97
2018-12-18T14:46:16.391Z,3.43
2018-12-18T14:48:46.087Z,3.47
2018-12-18T14:51:15.549Z,4.87
2018-12-18T14:53:45.040Z,3.77
2018-12-18T14:56:14.515Z,3.73
2018-12-18T14:58:44.002Z,3.00
2018-12-18T15:01:13.477Z,3.60
2018-12-18T15:03:42.977Z,4.10
2018-12-18T15:06:12.463Z,3.90
2018-12-18T15:08:41.953Z,4.23
2018-12-18T15:11:11.418Z,3.60
2018-12-18T15:13:43.723Z,3.00
2018-12-18T15:16:13.194Z,3.80
2018-12-18T15:18:42.686Z,3.73
2018-12-18T15:21:12.154Z,3.70
2018-12-18T15:23:41.626Z,3.23
2018-12-18T15:26:11.087Z,3.27
2018-12-18T15:28:40.562Z,3.97
2018-12-18T15:31:10.050Z,3.70
2018-12-18T15:33:39.563Z,4.23
2018-12-18T15:36:09.025Z,4.87
2018-12-18T15:38:38.519Z,4.20
2018-12-18T15:41:07.987Z,4.60
2018-12-18T15:43:37.505Z,4.57
2018-12-18T15:46:06.990Z,4.10
2018-12-18T15:48:36.483Z,4.60
2018-12-18T15:51:05.942Z,4.53
2018-12-18T15:53:35.430Z,4.73
2018-12-18T15:56:04.903Z,4.97
2018-12-18T15:58:34.398Z,4.90
2018-12-18T16:01:04.006Z,4.83
2018-12-18T16:03:33.497Z,5.10
2018-12-18T16:06:02.950Z,4.97
2018-12-18T16:08:32.442Z,6.80
2018-12-18T16:11:01.901Z,5.27
2018-12-18T16:13:31.456Z,5.80
2018-12-18T16:16:00.929Z,5.23
2018-12-18T16:18:30.409Z,5.37
2018-12-18T16:20:59.878Z,5.53
2018-12-18T16:23:29.374Z,5.13
2018-12-18T16:25:58.826Z,6.30
2018-12-18T16:28:28.322Z,6.30
2018-12-18T16:30:57.782Z,5.43
2018-12-18T16:33:27.301Z,5.33
2018-12-18T16:35:56.772Z,6.17
2018-12-18T16:38:26.255Z,6.10
2018-12-18T16:40:55.738Z,14.33
2018-12-18T16:43:25.562Z,13.40
2018-12-18T16:45:55.063Z,88.63
2018-12-18T16:48:24.558Z,7.13
2018-12-18T16:50:54.018Z,7.80
2018-12-18T16:53:23.510Z,6.93
2018-12-18T16:55:52.990Z,6.43
2018-12-18T16:58:22.490Z,5.90
2018-12-18T17:00:52.354Z,5.53
2018-12-18T17:03:21.858Z,6.33
2018-12-18T17:05:51.341Z,5.57
2018-12-18T17:08:20.844Z,6.30
2018-12-18T17:10:50.303Z,6.40
2018-12-18T17:13:19.801Z,5.60
2018-12-18T17:15:49.306Z,6.97
2018-12-18T17:18:18.798Z,6.00
2018-12-18T17:20:48.822Z,5.67
2018-12-18T17:23:18.321Z,5.20
2018-12-18T17:25:47.786Z,5.07
2018-12-18T17:28:17.289Z,4.90
2018-12-18T17:30:46.745Z,5.17
2018-12-18T17:33:16.240Z,5.40
2018-12-18T17:35:45.774Z,5.70
2018-12-18T17:38:15.522Z,5.60
2018-12-18T17:40:45.442Z,6.27
2018-12-18T17:43:15.025Z,5.07
2018-12-18T17:45:50.985Z,4.93
2018-12-18T17:48:20.478Z,5.50
2018-12-18T17:50:49.933Z,5.10
2018-12-18T17:53:19.462Z,5.20
2018-12-18T17:55:48.932Z,5.80
2018-12-18T17:58:18.389Z,4.80
2018-12-18T18:00:47.881Z,5.00
2018-12-18T18:03:17.338Z,5.17
2018-12-18T18:05:46.814Z,4.73
2018-12-18T18:08:16.328Z,5.17
2018-12-18T18:10:45.787Z,5.03
2018-12-18T18:13:15.251Z,4.47
2018-12-18T18:15:44.950Z,4.70
2018-12-18T18:18:14.407Z,5.70
2018-12-18T18:20:43.875Z,4.57
2018-12-18T18:23:13.370Z,6.60
2018-12-18T18:25:42.984Z,5.60
2018-12-18T18:28:12.445Z,4.97
2018-12-18T18:30:42.245Z,5.63
2018-12-18T18:33:11.716Z,4.70
2018-12-18T18:35:41.313Z,6.40
2018-12-18T18:38:10.846Z,4.80
2018-12-18T18:40:40.324Z,5.43
2018-12-18T18:43:09.798Z,5.40
2018-12-18T18:45:39.346Z,7.50
2018-12-18T18:48:08.820Z,6.13
2018-12-18T18:50:38.290Z,5.13
2018-12-18T18:53:07.805Z,4.50
2018-12-18T18:55:37.261Z,4.07
2018-12-18T18:58:06.726Z,4.47
2018-12-18T19:00:36.246Z,4.37
2018-12-18T19:03:05.706Z,4.13
2018-12-18T19:05:35.176Z,3.90
2018-12-18T19:08:04.722Z,4.00
2018-12-18T19:10:34.178Z,3.90
2018-12-18T19:13:03.646Z,3.60
2018-12-18T19:15:33.172Z,4.03
2018-12-18T19:18:02.638Z,3.80
2018-12-18T19:20:32.128Z,4.30
2018-12-18T19:23:02.036Z,4.40
2018-12-18T19:25:31.518Z,5.07
2018-12-18T19:28:00.978Z,4.40
2018-12-18T19:30:30.493Z,4.97
2018-12-18T19:32:59.966Z,5.00
2018-12-18T19:35:29.522Z,4.80
2018-12-18T19:38:03.188Z,4.90
2018-12-18T19:40:30.586Z,4.90
2018-12-18T19:43:00.130Z,4.73
2018-12-18T19:45:29.654Z,4.67
2018-12-18T19:47:59.255Z,4.80
2018-12-18T19:50:28.828Z,5.03
2018-12-18T19:52:58.339Z,4.93
2018-12-18T19:55:27.822Z,4.93
2018-12-18T19:57:57.350Z,4.80
2018-12-18T20:00:26.827Z,4.73
2018-12-18T20:02:56.305Z,4.60
2018-12-18T20:05:25.841Z,4.73
2018-12-18T20:07:55.341Z,4.53
2018-12-18T20:10:24.819Z,5.17
2018-12-18T20:12:54.342Z,4.70
2018-12-18T20:15:23.799Z,4.37
2018-12-18T20:17:53.461Z,4.33
2018-12-18T20:20:23.082Z,4.30
2018-12-18T20:22:52.554Z,4.50
2018-12-18T20:25:22.118Z,5.17
2018-12-18T20:27:51.646Z,4.47
2018-12-18T20:30:21.110Z,4.27
2018-12-18T20:32:50.576Z,4.43
2018-12-18T20:35:20.172Z,4.50
2018-12-18T20:37:49.634Z,4.77
2018-12-18T20:40:19.105Z,4.57
2018-12-18T20:42:48.626Z,5.43
2018-12-18T20:45:18.105Z,4.47
2018-12-18T20:47:47.666Z,4.70
2018-12-18T20:50:17.497Z,4.83
2018-12-18T20:52:47.262Z,4.50
2018-12-18T20:55:17.162Z,4.17
2018-12-18T20:57:46.616Z,4.67
2018-12-18T21:00:16.130Z,4.50
2018-12-18T21:02:46.182Z,4.50
2018-12-18T21:05:15.690Z,4.90
2018-12-18T21:07:45.390Z,4.70
2018-12-18T21:10:14.898Z,4.33
2018-12-18T21:12:44.354Z,4.90
2018-12-18T21:15:13.824Z,4.67
2018-12-18T21:17:43.322Z,4.80
2018-12-18T21:20:13.692Z,4.47
2018-12-18T21:22:43.322Z,4.43
2018-12-18T21:25:18.775Z,4.13
2018-12-18T21:27:44.543Z,4.90
2018-12-18T21:30:14.193Z,4.43
2018-12-18T21:32:43.673Z,4.93
2018-12-18T21:35:13.145Z,5.30
2018-12-18T21:37:42.655Z,4.80
2018-12-18T21:40:12.106Z,5.00
2018-12-18T21:42:41.579Z,4.10
2018-12-18T21:45:11.095Z,4.40
2018-12-18T21:47:40.568Z,4.60
2018-12-18T21:50:10.465Z,4.40
2018-12-18T21:52:40.040Z,4.17
2018-12-18T21:55:09.511Z,4.57
2018-12-18T21:57:38.975Z,5.13
2018-12-18T22:00:11.882Z,5.20
2018-12-18T22:02:41.406Z,4.70
2018-12-18T22:05:11.798Z,5.27
2018-12-18T22:07:41.272Z,5.73
2018-12-18T22:10:10.905Z,4.97
2018-12-18T22:12:40.409Z,4.60
2018-12-18T22:15:10.871Z,4.60
2018-12-18T22:17:40.940Z,5.33
2018-12-18T22:20:10.402Z,4.80
2018-12-18T22:22:39.854Z,5.23
2018-12-18T22:25:09.378Z,4.50
2018-12-18T22:27:38.840Z,5.10
2018-12-18T22:30:09.414Z,5.07
2018-12-18T22:32:39.014Z,5.10
2018-12-18T22:35:08.614Z,5.10
2018-12-18T22:37:38.118Z,4.43
2018-12-18T22:40:07.610Z,4.43
2018-12-18T22:42:37.066Z,4.53
2018-12-18T22:45:06.734Z,4.00
2018-12-18T22:47:36.222Z,4.17
2018-12-18T22:50:06.605Z,4.37
2018-12-18T22:52:36.061Z,4.53
2018-12-18T22:55:05.665Z,4.87
2018-12-18T22:57:35.570Z,4.57
2018-12-18T23:00:06.658Z,4.57
2018-12-18T23:02:36.338Z,4.50
2018-12-18T23:05:06.179Z,4.83
2018-12-18T23:07:35.639Z,3.87
2018-12-18T23:10:05.867Z,4.47
2018-12-18T23:12:35.331Z,4.20
2018-12-18T23:15:05.222Z,4.00
2018-12-18T23:17:34.682Z,4.30
2018-12-18T23:20:04.482Z,4.33
2018-12-18T23:22:33.971Z,4.33
2018-12-18T23:25:03.441Z,4.13
2018-12-18T23:27:32.910Z,3.57
2018-12-18T23:30:02.430Z,4.60
2018-12-18T23:32:31.989Z,4.50
2018-12-18T23:35:01.442Z,4.50
2018-12-18T23:37:31.005Z,4.00
2018-12-18T23:40:00.934Z,4.13
2018-12-18T23:42:30.433Z,4.47
2018-12-18T23:44:59.964Z,4.67
2018-12-18T23:47:29.418Z,4.33
2018-12-18T23:49:58.906Z,4.60
2018-12-18T23:52:28.622Z,4.40
2018-12-18T23:54:58.128Z,4.27
2018-12-18T23:57:27.589Z,4.27
2018-12-18T23:59:57.056Z,4.30
